PWSweather.com
Personal Weather Stations
Station Observations
SPARKSRC
St. Petersburg, FL 33716

St. Petersburg, FL 33716

Lat: 27.876101, Lon: -82.657194

Elevation: 13

Station Type: Zephyr PWS-1000TD

Latest ConditionsUpdated 3:35:01 AM EDT Tuesday, Oct 24, 2017
Currently Today's Max Today's Min Today's Average
Temperature 75.0°F23.9°C 75.0°F23.9°C 73.8°F23.2°C 74.1°F23.4°C
Dew Point 71.6°F22.0°C 71.6°F22.0°C 69.9°F21.1°C 70.3°F21.3°C
Winds 4.5 mph S7.2 kmh S 8.3 mph S13.4 kmh S - 4.8 mph 7.7 kmh
Wind Gusts 9.2 mph14.8 kmh 10.7 mph17.2 kmh - -
Humidity 89% 89% 87% 88%
Pressure 29.85 in1010.8 mb 29.90 in1012.5 mb 29.85 in1010.8 mb -
Hour Temp Dew Point Humidity Winds Wind Gusts Pressure Precip Precip Rate Daily Precip Total
03:35 AM 75.0°F23.9°C 71.6°F22.0°C 89% 4.5 mph S7.2 kmh S 9.2 mph14.8 kmh 29.85 in1010.8 mb 0.00 in0.0 mm 0.00 in0.0 mm 0.00 in0.0 mm
03:30 AM 74.8°F23.8°C 71.4°F21.9°C 89% 5.4 mph S8.7 kmh S 9.2 mph14.8 kmh 29.85 in1010.8 mb 0.00 in0.0 mm 0.00 in0.0 mm 0.00 in0.0 mm
03:25 AM 74.7°F23.7°C 71.2°F21.8°C 89% 6.0 mph S9.7 kmh S 10.7 mph17.2 kmh 29.86 in1011.2 mb 0.00 in0.0 mm 0.00 in0.0 mm 0.00 in0.0 mm
03:20 AM 74.5°F23.6°C 70.7°F21.5°C 88% 8.3 mph S13.4 kmh S 10.7 mph17.2 kmh 29.86 in1011.2 mb 0.00 in0.0 mm 0.00 in0.0 mm 0.00 in0.0 mm
03:15 AM 74.5°F23.6°C 70.7°F21.5°C 88% 6.0 mph S9.7 kmh S 10.7 mph17.2 kmh 29.86 in1011.2 mb 0.00 in0.0 mm 0.00 in0.0 mm 0.00 in0.0 mm
03:10 AM 74.3°F23.5°C 70.6°F21.4°C 88% 6.0 mph S9.7 kmh S 10.7 mph17.2 kmh 29.86 in1011.2 mb 0.00 in0.0 mm 0.00 in0.0 mm 0.00 in0.0 mm
03:05 AM 74.1°F23.4°C 70.4°F21.3°C 88% 5.4 mph S8.7 kmh S 9.2 mph14.8 kmh 29.86 in1011.2 mb 0.00 in0.0 mm 0.00 in0.0 mm 0.00 in0.0 mm
03:00 AM 74.1°F23.4°C 70.4°F21.3°C 88% 6.9 mph S11.1 kmh S 9.2 mph14.8 kmh 29.86 in1011.2 mb 0.00 in0.0 mm 0.00 in0.0 mm 0.00 in0.0 mm
02:55 AM 74.1°F23.4°C 70.4°F21.3°C 88% 4.5 mph S7.2 kmh S 6.0 mph9.7 kmh 29.86 in1011.2 mb 0.00 in0.0 mm 0.00 in0.0 mm 0.00 in0.0 mm
02:50 AM 73.9°F23.3°C 70.2°F21.2°C 88% 4.5 mph S7.2 kmh S 6.0 mph9.7 kmh 29.86 in1011.2 mb 0.00 in0.0 mm 0.00 in0.0 mm 0.00 in0.0 mm
02:45 AM 73.9°F23.3°C 70.2°F21.2°C 88% 3.1 mph S5.0 kmh S 6.0 mph9.7 kmh 29.86 in1011.2 mb 0.00 in0.0 mm 0.00 in0.0 mm 0.00 in0.0 mm
02:40 AM 73.9°F23.3°C 70.2°F21.2°C 88% 3.1 mph S5.0 kmh S 8.3 mph13.4 kmh 29.86 in1011.2 mb 0.00 in0.0 mm 0.00 in0.0 mm 0.00 in0.0 mm
02:35 AM 73.9°F23.3°C 70.2°F21.2°C 88% 4.5 mph SSE7.2 kmh SSE 8.3 mph13.4 kmh 29.86 in1011.2 mb 0.00 in0.0 mm 0.00 in0.0 mm 0.00 in0.0 mm
02:30 AM 73.9°F23.3°C 70.2°F21.2°C 88% 5.4 mph SSE8.7 kmh SSE 8.3 mph13.4 kmh 29.86 in1011.2 mb 0.00 in0.0 mm 0.00 in0.0 mm 0.00 in0.0 mm
02:25 AM 73.8°F23.2°C 70.0°F21.1°C 88% 5.4 mph SE8.7 kmh SE 6.9 mph11.1 kmh 29.86 in1011.2 mb 0.00 in0.0 mm 0.00 in0.0 mm 0.00 in0.0 mm
02:20 AM 73.9°F23.3°C 70.2°F21.2°C 88% 4.5 mph SE7.2 kmh SE 6.9 mph11.1 kmh 29.86 in1011.2 mb 0.00 in0.0 mm 0.00 in0.0 mm 0.00 in0.0 mm
02:15 AM 73.9°F23.3°C 70.2°F21.2°C 88% 3.8 mph S6.1 kmh S 6.9 mph11.1 kmh 29.86 in1011.2 mb 0.00 in0.0 mm 0.00 in0.0 mm 0.00 in0.0 mm
02:10 AM 73.8°F23.2°C 70.0°F21.1°C 88% 4.5 mph S7.2 kmh S 7.6 mph12.2 kmh 29.86 in1011.2 mb 0.00 in0.0 mm 0.00 in0.0 mm 0.00 in0.0 mm
02:05 AM 73.9°F23.3°C 70.2°F21.2°C 88% 3.8 mph S6.1 kmh S 7.6 mph12.2 kmh 29.86 in1011.2 mb 0.00 in0.0 mm 0.00 in0.0 mm 0.00 in0.0 mm
02:00 AM 73.9°F23.3°C 70.2°F21.2°C 88% 4.5 mph S7.2 kmh S 6.0 mph9.7 kmh 29.86 in1011.2 mb 0.00 in0.0 mm 0.00 in0.0 mm 0.00 in0.0 mm
01:55 AM 74.1°F23.4°C 70.4°F21.3°C 88% 4.5 mph S7.2 kmh S 6.9 mph11.1 kmh 29.87 in1011.5 mb 0.00 in0.0 mm 0.00 in0.0 mm 0.00 in0.0 mm
01:50 AM 74.1°F23.4°C 70.4°F21.3°C 88% 3.8 mph S6.1 kmh S 7.6 mph12.2 kmh 29.86 in1011.2 mb 0.00 in0.0 mm 0.00 in0.0 mm 0.00 in0.0 mm
01:45 AM 74.1°F23.4°C 70.4°F21.3°C 88% 4.5 mph S7.2 kmh S 9.2 mph14.8 kmh 29.86 in1011.2 mb 0.00 in0.0 mm 0.00 in0.0 mm 0.00 in0.0 mm
01:40 AM 74.1°F23.4°C 70.4°F21.3°C 88% 4.5 mph SSE7.2 kmh SSE 9.2 mph14.8 kmh 29.87 in1011.5 mb 0.00 in0.0 mm 0.00 in0.0 mm 0.00 in0.0 mm
01:35 AM 74.1°F23.4°C 70.4°F21.3°C 88% 4.5 mph SE7.2 kmh SE 8.3 mph13.4 kmh 29.86 in1011.2 mb 0.00 in0.0 mm 0.00 in0.0 mm 0.00 in0.0 mm
01:30 AM 74.1°F23.4°C 70.4°F21.3°C 88% 3.8 mph SSE6.1 kmh SSE 9.2 mph14.8 kmh 29.86 in1011.2 mb 0.00 in0.0 mm 0.00 in0.0 mm 0.00 in0.0 mm
01:25 AM 74.1°F23.4°C 70.4°F21.3°C 88% 6.9 mph SSE11.1 kmh SSE 9.2 mph14.8 kmh 29.87 in1011.5 mb 0.00 in0.0 mm 0.00 in0.0 mm 0.00 in0.0 mm
01:20 AM 73.9°F23.3°C 70.2°F21.2°C 88% 4.5 mph S7.2 kmh S 8.3 mph13.4 kmh 29.87 in1011.5 mb 0.00 in0.0 mm 0.00 in0.0 mm 0.00 in0.0 mm
01:15 AM 73.9°F23.3°C 70.2°F21.2°C 88% 4.5 mph S7.2 kmh S 6.9 mph11.1 kmh 29.87 in1011.5 mb 0.00 in0.0 mm 0.00 in0.0 mm 0.00 in0.0 mm
01:10 AM 73.9°F23.3°C 70.2°F21.2°C 88% 4.5 mph S7.2 kmh S 6.9 mph11.1 kmh 29.88 in1011.9 mb 0.00 in0.0 mm 0.00 in0.0 mm 0.00 in0.0 mm
01:05 AM 73.9°F23.3°C 70.2°F21.2°C 88% 4.5 mph S7.2 kmh S 6.9 mph11.1 kmh 29.88 in1011.9 mb 0.00 in0.0 mm 0.00 in0.0 mm 0.00 in0.0 mm
01:00 AM 74.1°F23.4°C 70.4°F21.3°C 88% 3.8 mph SSE6.1 kmh SSE 6.9 mph11.1 kmh 29.88 in1011.9 mb 0.00 in0.0 mm 0.00 in0.0 mm 0.00 in0.0 mm
12:55 AM 74.1°F23.4°C 70.4°F21.3°C 88% 5.4 mph SE8.7 kmh SE 7.6 mph12.2 kmh 29.88 in1011.9 mb 0.00 in0.0 mm 0.00 in0.0 mm 0.00 in0.0 mm
12:50 AM 73.9°F23.3°C 70.2°F21.2°C 88% 4.5 mph SSE7.2 kmh SSE 7.6 mph12.2 kmh 29.88 in1011.9 mb 0.00 in0.0 mm 0.00 in0.0 mm 0.00 in0.0 mm
12:45 AM 73.9°F23.3°C 70.2°F21.2°C 88% 4.5 mph S7.2 kmh S 7.6 mph12.2 kmh 29.89 in1012.2 mb 0.00 in0.0 mm 0.00 in0.0 mm 0.00 in0.0 mm
12:40 AM 73.9°F23.3°C 70.2°F21.2°C 88% 6.0 mph S9.7 kmh S 7.6 mph12.2 kmh 29.89 in1012.2 mb 0.00 in0.0 mm 0.00 in0.0 mm 0.00 in0.0 mm
12:35 AM 73.9°F23.3°C 69.9°F21.1°C 87% 4.5 mph SSE7.2 kmh SSE 7.6 mph12.2 kmh 29.90 in1012.5 mb 0.00 in0.0 mm 0.00 in0.0 mm 0.00 in0.0 mm
12:30 AM 73.9°F23.3°C 69.9°F21.1°C 87% 4.5 mph SSE7.2 kmh SSE 7.6 mph12.2 kmh 29.89 in1012.2 mb 0.00 in0.0 mm 0.00 in0.0 mm 0.00 in0.0 mm
12:25 AM 73.9°F23.3°C 69.9°F21.1°C 87% 4.5 mph SSE7.2 kmh SSE 8.3 mph13.4 kmh 29.90 in1012.5 mb 0.00 in0.0 mm 0.00 in0.0 mm 0.00 in0.0 mm
12:20 AM 73.9°F23.3°C 69.9°F21.1°C 87% 4.5 mph SSE7.2 kmh SSE 8.3 mph13.4 kmh 29.90 in1012.5 mb 0.00 in0.0 mm 0.00 in0.0 mm 0.00 in0.0 mm
12:15 AM 73.9°F23.3°C 69.9°F21.1°C 87% 5.4 mph S8.7 kmh S 7.6 mph12.2 kmh 29.90 in1012.5 mb 0.00 in0.0 mm 0.00 in0.0 mm 0.00 in0.0 mm
12:10 AM 73.9°F23.3°C 69.9°F21.1°C 87% 3.8 mph S6.1 kmh S 7.6 mph12.2 kmh 29.90 in1012.5 mb 0.00 in0.0 mm 0.00 in0.0 mm 0.00 in0.0 mm
12:05 AM 73.9°F23.3°C 69.9°F21.1°C 87% 4.5 mph S7.2 kmh S 6.0 mph9.7 kmh 29.90 in1012.5 mb 0.00 in0.0 mm 0.00 in0.0 mm 0.00 in0.0 mm
12:00 AM 73.9°F23.3°C 69.9°F21.1°C 87% 4.5 mph S7.2 kmh S 6.0 mph9.7 kmh 29.90 in1012.5 mb 0.00 in0.0 mm 0.00 in0.0 mm 0.00 in0.0 mm